Time;durP1;ratioP1;P1;durP2;ratioP2;P2;SDS_P1;SDS_P2;PMS_P1;PMS_P2;Temp;Humidity;BMP_temperature;BMP_pressure;BME280_temperature;BME280_humidity;BME280_pressure;Samples;Min_cycle;Max_cycle;Signal;HPM_P1;HPM_P2
2021/07/20 00:00:56;;;;;;;11.75;8.52;;;;;;;23.02;46.69;102269.09;5053220;28;20029;-85
2021/07/20 00:03:21;;;;;;;10.43;8.05;;;;;;;23.06;46.47;102272.53;5019957;28;20119;-86
2021/07/20 00:05:47;;;;;;;10.98;8.75;;;;;;;23.07;46.66;102264.66;5036221;28;20033;-85
2021/07/20 00:08:12;;;;;;;11.98;8.68;;;;;;;23.06;46.57;102268.16;5036029;28;20036;-86
2021/07/20 00:10:51;;;;;;;11.55;8.38;;;;;;;23.10;46.53;102272.47;5019751;28;20120;-86
2021/07/20 00:13:18;;;;;;;11.15;8.40;;;;;;;23.10;46.55;102275.09;5052600;28;20036;-85
2021/07/20 00:15:44;;;;;;;10.75;8.00;;;;;;;23.11;46.49;102270.75;5053897;28;20371;-85
2021/07/20 00:18:12;;;;;;;9.30;7.70;;;;;;;23.12;46.62;102272.47;5035926;28;20031;-85
2021/07/20 00:20:38;;;;;;;10.73;8.00;;;;;;;23.11;46.48;102268.97;5052408;28;20024;-85
2021/07/20 00:23:06;;;;;;;9.35;7.82;;;;;;;23.12;46.81;102273.34;5034999;28;20043;-85
2021/07/20 00:25:31;;;;;;;10.23;8.15;;;;;;;23.11;46.48;102263.72;5052253;28;20053;-79
2021/07/20 00:27:57;;;;;;;10.00;8.05;;;;;;;23.11;47.04;102266.34;5052326;28;20099;-79
2021/07/20 00:30:23;;;;;;;11.23;8.18;;;;;;;23.12;46.85;102268.09;5052095;28;20045;-79
2021/07/20 00:32:48;;;;;;;10.43;8.10;;;;;;;23.11;46.78;102266.34;5035773;28;20025;-79
2021/07/20 00:35:14;;;;;;;11.02;8.32;;;;;;;23.12;46.88;102265.47;5035511;28;20072;-79
2021/07/20 00:37:41;;;;;;;12.13;8.60;;;;;;;23.11;46.55;102262.88;5035817;28;20032;-78
2021/07/20 00:40:09;;;;;;;12.40;9.05;;;;;;;23.12;46.89;102270.72;5052480;28;20079;-78
2021/07/20 00:42:35;;;;;;;11.70;8.20;;;;;;;23.10;46.80;102272.47;5052139;28;20029;-79
2021/07/20 00:45:02;;;;;;;12.05;8.77;;;;;;;23.12;46.85;102267.22;5035520;28;20033;-86
2021/07/20 00:47:28;;;;;;;11.50;8.63;;;;;;;23.11;46.60;102271.59;5052038;28;20027;-86
2021/07/20 00:49:53;;;;;;;11.68;8.48;;;;;;;23.12;46.72;102269.84;5035598;28;20021;-86
2021/07/20 00:52:18;;;;;;;13.23;9.02;;;;;;;23.11;46.83;102271.59;5051996;28;20024;-85
2021/07/20 00:54:44;;;;;;;11.95;8.95;;;;;;;23.10;46.65;102269.84;5035321;28;20063;-85
2021/07/20 00:57:09;;;;;;;11.52;8.27;;;;;;;23.10;46.75;102272.47;5051977;28;20032;-85
2021/07/20 00:59:37;;;;;;;11.88;9.02;;;;;;;23.11;46.97;102273.38;5035433;28;20059;-85
2021/07/20 01:02:03;;;;;;;14.75;9.40;;;;;;;23.08;46.76;102271.66;5035633;28;20029;-86
2021/07/20 01:04:29;;;;;;;14.20;9.60;;;;;;;23.07;46.72;102272.53;5035189;28;20021;-85
2021/07/20 01:06:56;;;;;;;12.05;9.13;;;;;;;23.07;46.99;102267.28;5018759;28;20032;-85
2021/07/20 01:09:23;;;;;;;12.95;9.35;;;;;;;23.07;46.60;102269.91;5051880;28;20119;-85
2021/07/20 01:11:50;;;;;;;12.20;8.88;;;;;;;23.07;46.87;102269.03;5035387;28;20178;-85
2021/07/20 01:14:16;;;;;;;13.82;8.93;;;;;;;23.08;46.56;102276.91;5035407;28;20059;-86
2021/07/20 01:16:43;;;;;;;14.40;9.40;;;;;;;23.08;46.92;102274.28;5052111;28;20443;-86
2021/07/20 01:19:16;;;;;;;12.77;9.23;;;;;;;23.09;46.70;102277.78;5019510;28;20510;-85
2021/07/20 01:21:43;;;;;;;13.63;9.25;;;;;;;23.10;46.92;102275.09;5051834;28;20029;-86
2021/07/20 01:24:13;;;;;;;12.68;9.65;;;;;;;23.09;46.64;102273.38;5051696;28;20040;-86
2021/07/20 01:26:39;;;;;;;12.45;9.40;;;;;;;23.10;46.64;102277.72;5051697;28;20025;-86
2021/07/20 01:29:07;;;;;;;12.80;9.20;;;;;;;23.10;46.76;102271.63;5034927;28;20124;-87
2021/07/20 01:31:36;;;;;;;14.15;9.10;;;;;;;23.09;47.13;102270.75;5051756;28;20029;-86
2021/07/20 01:34:03;;;;;;;13.35;9.35;;;;;;;23.09;46.72;102273.38;5051567;28;20040;-86
2021/07/20 01:36:31;;;;;;;12.63;9.32;;;;;;;23.10;46.70;102276.88;5055547;28;20163;-86
2021/07/20 01:38:59;;;;;;;12.30;9.55;;;;;;;23.09;46.85;102268.13;5055520;28;20112;-85
2021/07/20 01:41:25;;;;;;;14.15;9.23;;;;;;;23.09;46.66;102272.50;5055713;28;20107;-86
2021/07/20 01:44:03;;;;;;;13.35;9.23;;;;;;;23.08;46.96;102270.75;5039390;28;20051;-86
2021/07/20 01:46:34;;;;;;;12.25;9.82;;;;;;;23.05;46.95;102266.41;5056439;28;20032;-86
2021/07/20 01:49:02;;;;;;;11.60;9.65;;;;;;;23.03;46.67;102267.31;5022930;28;20032;-86
2021/07/20 01:51:28;;;;;;;12.70;10.10;;;;;;;23.03;46.92;102264.69;5039177;28;20119;-85
2021/07/20 01:53:56;;;;;;;13.05;10.20;;;;;;;23.00;46.86;102258.59;5038709;28;20060;-86
2021/07/20 01:56:22;;;;;;;13.43;10.02;;;;;;;22.99;46.47;102263.81;5055088;28;20021;-86
2021/07/20 01:58:48;;;;;;;12.55;9.90;;;;;;;23.01;46.63;102259.44;5055169;28;20112;-85
2021/07/20 02:01:20;;;;;;;12.50;9.73;;;;;;;23.02;46.44;102255.97;5038450;28;20029;-86
2021/07/20 02:09:23;;;;;;;13.13;10.25;;;;;;;23.02;46.85;102261.22;5056577;28;20124;-86
2021/07/20 02:11:51;;;;;;;13.07;9.63;;;;;;;23.02;46.84;102255.97;5055080;28;20032;-86
2021/07/20 02:14:19;;;;;;;13.45;10.00;;;;;;;23.02;46.63;102257.69;5054869;28;20104;-86
2021/07/20 02:16:48;;;;;;;14.27;9.98;;;;;;;22.98;46.34;102257.69;5054766;28;20467;-86
2021/07/20 02:19:33;;;;;;;14.73;10.27;;;;;;;22.99;46.75;102254.22;5055165;28;20025;-86
2021/07/20 02:22:01;;;;;;;13.02;9.73;;;;;;;23.00;46.55;102250.72;5054602;28;20383;-86
2021/07/20 02:24:30;;;;;;;14.45;10.40;;;;;;;23.01;46.86;102256.81;5037885;28;20534;-86
2021/07/20 02:27:01;;;;;;;14.00;10.68;;;;;;;23.02;46.59;102258.59;5054636;28;20032;-86
2021/07/20 02:29:27;;;;;;;14.82;10.25;;;;;;;23.01;46.63;102254.19;5055742;28;20132;-85
2021/07/20 02:31:56;;;;;;;16.08;10.45;;;;;;;23.01;46.43;102264.69;5055809;28;20025;-86
2021/07/20 02:34:22;;;;;;;14.95;10.65;;;;;;;23.03;46.41;102264.69;5055562;28;20035;-86
2021/07/20 02:36:49;;;;;;;15.00;10.88;;;;;;;23.03;46.62;102265.56;5038057;28;20021;-85
2021/07/20 02:39:15;;;;;;;14.55;9.68;;;;;;;23.02;46.76;102263.84;5054590;28;20106;-86
2021/07/20 02:41:41;;;;;;;12.43;9.73;;;;;;;23.02;46.70;102268.19;5021461;28;20060;-86
2021/07/20 02:44:08;;;;;;;13.60;10.15;;;;;;;23.02;46.73;102268.19;5054467;28;20036;-85
2021/07/20 02:46:35;;;;;;;13.68;10.38;;;;;;;23.02;46.95;102269.09;5037046;28;20430;-86
2021/07/20 02:49:02;;;;;;;13.38;10.43;;;;;;;23.02;46.67;102268.19;5054399;28;20182;-86
2021/07/20 02:51:28;;;;;;;12.88;9.77;;;;;;;22.99;46.69;102267.34;5054369;28;20111;-86
2021/07/20 02:53:56;;;;;;;13.57;9.98;;;;;;;23.02;46.77;102273.44;5021281;28;20049;-85
2021/07/20 02:56:23;;;;;;;13.27;9.45;;;;;;;23.03;46.80;102273.44;5054085;28;20048;-85
2021/07/20 02:58:51;;;;;;;12.93;9.60;;;;;;;23.02;46.64;102268.19;5053872;28;20021;-85
2021/07/20 03:01:20;;;;;;;12.65;10.00;;;;;;;23.02;46.91;102265.56;5037411;28;20028;-85
2021/07/20 03:03:46;;;;;;;12.95;9.95;;;;;;;23.02;46.69;102265.56;5037314;28;20036;-85
2021/07/20 03:06:13;;;;;;;13.82;10.02;;;;;;;23.02;46.70;102269.09;5037372;28;20059;-89
2021/07/20 03:08:41;;;;;;;11.70;9.02;;;;;;;23.01;46.83;102262.06;5054196;28;20025;-90
2021/07/20 03:11:10;;;;;;;11.98;9.15;;;;;;;22.99;46.47;102264.69;5054085;28;20021;-89
2021/07/20 03:13:41;;;;;;;12.23;9.68;;;;;;;22.98;46.77;102262.94;5053833;28;20074;-89
2021/07/20 03:16:08;;;;;;;11.68;9.00;;;;;;;22.97;46.58;102261.22;5053946;28;20024;-80
2021/07/20 03:18:36;;;;;;;11.35;9.25;;;;;;;22.97;46.88;102260.31;5053492;28;20028;-80
2021/07/20 03:21:02;;;;;;;12.23;9.27;;;;;;;22.97;46.95;102255.97;5037164;28;20565;-80
2021/07/20 03:23:29;;;;;;;12.45;9.20;;;;;;;22.96;46.67;102263.84;5053326;28;20020;-79
2021/07/20 03:25:59;;;;;;;13.07;9.27;;;;;;;22.96;46.70;102275.22;5036534;28;20480;-79
2021/07/20 03:28:26;;;;;;;13.75;9.32;;;;;;;22.95;46.81;102268.25;5036829;28;20060;-80
2021/07/20 03:30:54;;;;;;;12.00;9.20;;;;;;;22.95;46.72;102265.63;5036760;28;20061;-80
2021/07/20 03:33:23;;;;;;;12.98;9.50;;;;;;;22.95;46.96;102267.34;5036433;28;20037;-79
2021/07/20 03:35:50;;;;;;;12.15;9.30;;;;;;;22.95;46.49;102276.13;5054492;28;20025;-80
2021/07/20 03:38:17;;;;;;;13.32;9.48;;;;;;;22.95;46.73;102269.97;5036942;28;20475;-80
2021/07/20 03:40:44;;;;;;;10.90;8.75;;;;;;;22.95;46.87;102265.63;5036651;28;20430;-80
2021/07/20 03:43:10;;;;;;;11.93;9.13;;;;;;;22.94;46.94;102266.47;5036887;28;20487;-80
2021/07/20 03:45:35;;;;;;;11.75;8.85;;;;;;;22.95;46.83;102264.72;5019851;28;20037;-80
2021/07/20 03:48:01;;;;;;;11.57;9.25;;;;;;;22.93;46.65;102261.25;5036602;28;20044;-80
2021/07/20 03:50:27;;;;;;;12.05;9.27;;;;;;;22.92;46.77;102262.13;5019973;28;20024;-81
2021/07/20 03:52:54;;;;;;;13.00;9.15;;;;;;;22.90;46.72;102269.16;5020413;28;20029;-89
2021/07/20 03:55:21;;;;;;;13.00;9.55;;;;;;;22.92;46.72;102264.75;5037193;28;20029;-89
2021/07/20 03:57:47;;;;;;;10.55;8.40;;;;;;;22.92;46.69;102270.00;5038769;28;20614;-89
2021/07/20 04:00:15;;;;;;;12.23;8.95;;;;;;;22.92;46.46;102273.50;5057155;28;20024;-90
2021/07/20 04:02:46;;;;;;;10.90;8.77;;;;;;;22.93;46.83;102271.75;5056444;28;20024;-90
2021/07/20 04:05:14;;;;;;;10.57;8.88;;;;;;;22.94;46.52;102273.50;5055999;28;20040;-89
2021/07/20 04:07:42;;;;;;;12.60;9.35;;;;;;;22.92;46.83;102270.88;5055315;28;20475;-89
2021/07/20 04:10:08;;;;;;;11.25;9.23;;;;;;;22.92;46.91;102278.75;5037197;28;20029;-88
2021/07/20 04:12:35;;;;;;;10.23;8.55;;;;;;;22.92;46.80;102280.50;5036999;28;20124;-89
2021/07/20 04:15:01;;;;;;;10.85;8.93;;;;;;;22.92;46.76;102275.25;5053463;28;20028;-90
2021/07/20 04:17:28;;;;;;;10.63;9.20;;;;;;;22.92;46.82;102275.25;5036688;28;20025;-89
2021/07/20 04:19:54;;;;;;;10.52;8.95;;;;;;;22.92;46.72;102277.88;5053222;28;20025;-90
2021/07/20 04:22:20;;;;;;;9.30;8.30;;;;;;;22.91;46.85;102269.16;5036518;28;20472;-88
2021/07/20 04:24:46;;;;;;;13.18;9.20;;;;;;;22.92;46.65;102275.25;5019794;28;20029;-89
2021/07/20 04:27:12;;;;;;;10.73;9.02;;;;;;;22.90;46.78;102272.63;5036238;28;20021;-90
2021/07/20 04:29:39;;;;;;;10.52;9.13;;;;;;;22.90;46.89;102267.41;5020237;28;20083;-90
2021/07/20 04:32:06;;;;;;;9.77;8.15;;;;;;;22.91;46.60;102261.28;5035942;28;20503;-86
2021/07/20 04:34:36;;;;;;;13.40;10.18;;;;;;;22.97;46.54;102265.56;5053812;28;20027;-92
2021/07/20 04:37:04;;;;;;;11.88;9.27;;;;;;;22.98;46.26;102264.72;5036324;28;20041;-90
2021/07/20 04:39:35;;;;;;;12.70;9.93;;;;;;;23.00;46.46;102262.97;5052549;28;20052;-87
2021/07/20 04:42:06;;;;;;;12.18;9.63;;;;;;;23.00;46.42;102262.97;5052454;28;20037;-88
2021/07/20 04:44:32;;;;;;;12.13;9.65;;;;;;;23.02;46.30;102271.72;5052143;28;20116;-86
2021/07/20 04:46:57;;;;;;;11.77;9.65;;;;;;;23.02;46.19;102268.19;5035636;28;20116;-86
2021/07/20 04:49:23;;;;;;;13.15;9.82;;;;;;;23.03;46.34;102276.06;5052360;28;20382;-87
2021/07/20 04:51:49;;;;;;;13.07;9.60;;;;;;;23.03;46.25;102275.19;5053395;28;20025;-87
2021/07/20 04:54:16;;;;;;;14.05;9.68;;;;;;;23.03;46.45;102270.81;5052351;28;20029;-88
2021/07/20 04:56:42;;;;;;;12.60;9.88;;;;;;;23.03;46.17;102278.69;5035638;28;20017;-88
2021/07/20 04:59:11;;;;;;;13.77;10.90;;;;;;;23.04;46.10;102272.56;5052148;28;20554;-87
2021/07/20 05:01:37;;;;;;;13.02;9.93;;;;;;;23.03;46.04;102278.69;5052158;28;20029;-87
2021/07/20 05:04:03;;;;;;;12.00;10.13;;;;;;;23.04;46.29;102276.91;5052031;28;20406;-88
2021/07/20 05:06:29;;;;;;;12.43;10.70;;;;;;;23.03;45.91;102277.81;5052091;28;20029;-88
2021/07/20 05:08:56;;;;;;;12.82;10.52;;;;;;;23.04;45.97;102275.19;5053009;28;20451;-85
2021/07/20 05:11:22;;;;;;;15.25;11.23;;;;;;;22.96;45.59;102276.97;5057210;28;20051;-85
2021/07/20 05:13:49;;;;;;;14.38;11.38;;;;;;;22.89;45.24;102277.94;5055879;28;20036;-87
2021/07/20 05:16:15;;;;;;;15.65;10.88;;;;;;;22.83;45.37;102272.72;5023330;28;20475;-86
2021/07/20 05:18:44;;;;;;;16.48;11.82;;;;;;;22.84;45.41;102277.09;5056179;28;20111;-86
2021/07/20 05:21:11;;;;;;;17.15;11.35;;;;;;;22.86;45.16;102276.19;5056550;28;20103;-87
2021/07/20 05:23:39;;;;;;;15.13;10.50;;;;;;;22.83;44.99;102278.84;5038893;28;20064;-78
2021/07/20 05:26:06;;;;;;;13.88;11.15;;;;;;;22.79;45.01;102279.75;5055731;28;20113;-84
2021/07/20 05:28:32;;;;;;;15.15;11.30;;;;;;;22.75;44.93;102271.00;5055993;28;20059;-87
2021/07/20 05:31:00;;;;;;;13.30;10.95;;;;;;;22.71;45.08;102273.69;5056539;28;20056;-86
2021/07/20 05:33:27;;;;;;;20.45;15.15;;;;;;;22.66;44.54;102273.72;5058451;28;20133;-85
2021/07/20 05:35:58;;;;;;;28.88;17.15;;;;;;;22.61;44.84;102262.41;5043159;28;20089;-83
2021/07/20 05:38:28;;;;;;;27.17;17.02;;;;;;;22.58;44.39;102265.94;5060214;28;20027;-81
2021/07/20 05:40:57;;;;;;;27.30;17.80;;;;;;;22.56;44.70;102266.84;5040355;28;20438;-82
2021/07/20 05:43:27;;;;;;;25.27;16.77;;;;;;;22.58;44.45;102272.91;5057448;28;20112;-83
2021/07/20 05:45:54;;;;;;;23.35;16.38;;;;;;;22.56;43.96;102279.97;5055258;28;20105;-88
2021/07/20 05:48:22;;;;;;;24.23;16.65;;;;;;;22.55;44.37;102278.19;5055123;28;20029;-86
2021/07/20 05:50:53;;;;;;;22.33;16.00;;;;;;;22.54;44.09;102271.22;5056784;28;20120;-86
2021/07/20 05:53:21;;;;;;;19.90;14.52;;;;;;;22.54;44.34;102281.72;5038724;28;20025;-85
2021/07/20 05:55:50;;;;;;;22.40;15.38;;;;;;;22.53;44.13;102279.97;5055450;28;20051;-85
2021/07/20 05:58:18;;;;;;;19.17;13.75;;;;;;;22.53;43.93;102282.56;5055097;28;20033;-85
2021/07/20 06:00:44;;;;;;;20.08;13.80;;;;;;;22.53;44.20;102279.97;5055144;28;20060;-79
2021/07/20 06:03:18;;;;;;;20.38;13.98;;;;;;;22.55;43.95;102283.44;5054880;28;20029;-80
2021/07/20 06:05:45;;;;;;;21.83;13.52;;;;;;;22.54;43.90;102285.19;5054782;28;20031;-81
2021/07/20 06:08:16;;;;;;;19.80;13.15;;;;;;;22.55;43.92;102280.81;5054916;28;20028;-80
2021/07/20 06:10:44;;;;;;;21.67;13.07;;;;;;;22.56;43.77;102282.56;5054970;28;20475;-81
2021/07/20 06:13:11;;;;;;;17.33;12.45;;;;;;;22.57;43.86;102284.31;5055411;28;20021;-80
2021/07/20 06:15:39;;;;;;;20.38;12.93;;;;;;;22.61;44.06;102286.03;5054871;28;20047;-80
2021/07/20 06:18:05;;;;;;;18.02;12.68;;;;;;;22.63;43.63;102284.25;5054970;28;20130;-80
2021/07/20 06:20:30;;;;;;;18.48;12.13;;;;;;;22.61;43.80;102286.03;5037665;28;20108;-78
2021/07/20 06:22:58;;;;;;;18.42;12.20;;;;;;;22.63;43.77;102296.50;5020841;28;20032;-79
2021/07/20 06:25:24;;;;;;;21.80;12.35;;;;;;;22.63;43.55;102289.50;5054575;28;20035;-78
2021/07/20 06:27:51;;;;;;;17.73;11.45;;;;;;;22.65;43.52;102287.75;5056131;28;20024;-79
2021/07/20 06:30:20;;;;;;;16.55;11.10;;;;;;;22.69;43.48;102285.94;5054741;28;20045;-78
2021/07/20 06:32:46;;;;;;;17.30;11.90;;;;;;;22.72;43.51;102292.06;5054368;28;20128;-78
2021/07/20 06:35:14;;;;;;;16.67;11.75;;;;;;;22.71;43.09;102292.94;5054420;28;20040;-78
2021/07/20 06:37:42;;;;;;;15.25;10.68;;;;;;;22.71;42.65;102286.81;5037965;28;20438;-78
2021/07/20 06:40:15;;;;;;;15.85;10.48;;;;;;;22.70;42.97;102295.56;5054553;28;20108;-78
2021/07/20 06:42:41;;;;;;;13.93;10.45;;;;;;;22.74;42.83;102298.16;5054472;28;20124;-79
2021/07/20 06:45:08;;;;;;;14.60;10.75;;;;;;;22.73;42.55;102299.06;5037681;28;20056;-79
2021/07/20 06:47:39;;;;;;;15.48;10.43;;;;;;;22.69;42.54;102299.06;5038192;28;20033;-79
2021/07/20 06:50:06;;;;;;;14.02;10.00;;;;;;;22.67;42.39;102296.47;5022377;28;20124;-78
2021/07/20 06:52:31;;;;;;;13.45;9.80;;;;;;;22.69;41.92;102297.34;5054007;28;20021;-78
2021/07/20 06:54:57;;;;;;;11.77;9.77;;;;;;;22.70;42.02;102296.44;5037170;28;20025;-79
2021/07/20 06:57:25;;;;;;;14.23;9.77;;;;;;;22.73;41.99;102301.69;5037450;28;20040;-78
2021/07/20 06:59:51;;;;;;;16.30;8.95;;;;;;;22.74;42.03;102298.16;5055048;28;20025;-78
2021/07/20 07:02:21;;;;;;;14.98;9.57;;;;;;;22.77;41.89;102297.25;5053802;28;20037;-78
2021/07/20 07:04:57;;;;;;;12.45;9.27;;;;;;;22.78;42.08;102301.66;5053586;28;20057;-78
2021/07/20 07:07:25;;;;;;;12.02;9.48;;;;;;;22.82;42.01;102302.47;5054856;28;20107;-77
2021/07/20 07:09:50;;;;;;;15.35;9.98;;;;;;;22.84;41.76;102304.19;5053777;28;20112;-77
2021/07/20 07:12:18;;;;;;;13.23;9.38;;;;;;;22.89;41.93;102309.44;5037138;28;20502;-78
2021/07/20 07:14:44;;;;;;;16.50;10.43;;;;;;;22.91;41.92;102308.53;5036943;28;20033;-78
2021/07/20 07:17:11;;;;;;;14.88;9.85;;;;;;;22.92;41.93;102302.38;5020472;28;20078;-78
2021/07/20 07:19:39;;;;;;;16.35;9.52;;;;;;;22.94;42.13;102297.13;5037051;28;20389;-77
2021/07/20 07:22:05;;;;;;;14.18;9.00;;;;;;;22.98;41.73;102309.34;5037042;28;20033;-78
2021/07/20 07:24:32;;;;;;;15.07;9.82;;;;;;;22.96;41.82;102308.47;5036825;28;20494;-77
2021/07/20 07:26:59;;;;;;;14.02;9.02;;;;;;;22.95;41.92;102307.63;5054444;28;20475;-78
2021/07/20 07:29:26;;;;;;;15.32;9.52;;;;;;;22.94;42.03;102310.25;5053100;28;20079;-77
2021/07/20 07:31:51;;;;;;;13.68;9.25;;;;;;;22.96;42.07;102309.34;5020138;28;20031;-77
2021/07/20 07:34:17;;;;;;;13.55;8.98;;;;;;;22.93;41.78;102309.38;5036463;28;20033;-77
2021/07/20 07:36:45;;;;;;;12.02;9.15;;;;;;;22.96;42.16;102308.47;5053343;28;20467;-77
2021/07/20 07:39:12;;;;;;;14.07;8.63;;;;;;;23.01;42.05;102311.97;5053115;28;20016;-78
2021/07/20 07:41:39;;;;;;;13.15;9.10;;;;;;;23.02;41.99;102315.44;5020080;28;20175;-77
2021/07/20 07:44:06;;;;;;;13.90;9.50;;;;;;;23.00;41.79;102321.59;5036615;28;20043;-77
2021/07/20 07:46:34;;;;;;;14.20;8.93;;;;;;;23.05;42.14;102318.94;5019701;28;20025;-77
2021/07/20 07:49:00;;;;;;;10.75;8.93;;;;;;;23.05;41.91;102318.94;5052925;28;20029;-77
2021/07/20 07:51:26;;;;;;;13.95;9.30;;;;;;;23.04;41.84;102322.44;5052807;28;20413;-77
2021/07/20 07:53:58;;;;;;;13.05;8.52;;;;;;;22.97;41.69;102313.72;5036410;28;20033;-77
2021/07/20 07:56:28;;;;;;;11.25;8.43;;;;;;;23.01;41.69;102314.59;5052789;28;20025;-77
2021/07/20 07:58:56;;;;;;;13.88;9.07;;;;;;;22.99;41.55;102316.31;5036189;28;20044;-85
2021/07/20 08:01:23;;;;;;;13.88;8.63;;;;;;;23.00;41.58;102311.09;5053288;28;20028;-83
2021/07/20 08:03:50;;;;;;;13.27;8.23;;;;;;;23.04;41.86;102314.56;5036215;28;20033;-83
2021/07/20 08:06:20;;;;;;;12.98;8.73;;;;;;;23.06;41.75;102315.44;5052610;28;20392;-84
2021/07/20 08:08:48;;;;;;;14.18;9.73;;;;;;;23.06;41.57;102312.81;5052871;28;20025;-84
2021/07/20 08:11:15;;;;;;;11.88;8.32;;;;;;;23.10;41.58;102311.00;5053987;28;20037;-84
2021/07/20 08:13:42;;;;;;;10.88;8.27;;;;;;;23.10;41.78;102305.75;5052521;28;20031;-85
2021/07/20 08:16:09;;;;;;;11.10;8.43;;;;;;;23.16;41.73;102311.81;5052354;28;20028;-85
2021/07/20 08:18:35;;;;;;;14.52;8.68;;;;;;;23.18;41.72;102309.19;5052856;28;20533;-84
2021/07/20 08:21:06;;;;;;;10.90;7.78;;;;;;;23.18;41.79;102310.03;5052546;28;20032;-85
2021/07/20 08:23:35;;;;;;;13.75;7.60;;;;;;;23.19;41.90;102310.91;5020896;28;20140;-86
2021/07/20 08:26:06;;;;;;;11.23;7.80;;;;;;;23.10;41.54;102309.25;5052362;28;20021;-86
2021/07/20 08:28:57;;;;;;;14.40;8.25;;;;;;;23.07;41.30;102305.78;5053641;28;20028;-84
2021/07/20 08:31:25;;;;;;;11.65;8.10;;;;;;;23.08;41.17;102311.03;5033930;28;20042;-86
2021/07/20 08:33:56;;;;;;;12.05;8.10;;;;;;;23.08;41.43;102311.03;5032305;28;20041;-85
2021/07/20 08:36:24;;;;;;;9.90;7.75;;;;;;;23.11;41.26;102316.25;5032508;28;20044;-86
2021/07/20 08:38:51;;;;;;;8.68;7.05;;;;;;;23.11;41.52;102318.00;5032244;28;20021;-86
2021/07/20 08:41:28;;;;;;;11.98;7.70;;;;;;;23.07;41.00;102314.53;5033691;28;20104;-86
2021/07/20 08:43:59;;;;;;;11.82;7.30;;;;;;;23.05;40.75;102313.69;5031743;28;20094;-86
2021/07/20 08:46:40;;;;;;;10.65;7.30;;;;;;;23.07;41.06;102304.03;5033466;28;20468;-86
2021/07/20 08:49:08;;;;;;;10.40;7.18;;;;;;;23.09;40.84;102315.38;5032085;28;20025;-86
2021/07/20 08:51:55;;;;;;;9.73;7.03;;;;;;;23.14;41.17;102310.09;5032123;28;20028;-87
2021/07/20 08:54:40;;;;;;;9.00;6.68;;;;;;;23.16;41.20;102308.31;5032097;28;20021;-86
2021/07/20 08:57:11;;;;;;;8.52;6.97;;;;;;;23.20;40.95;102316.16;5033388;28;20084;-87
2021/07/20 08:59:56;;;;;;;8.52;6.60;;;;;;;23.24;40.86;102313.50;5032452;28;20021;-86
2021/07/20 09:02:36;;;;;;;10.45;6.95;;;;;;;23.21;41.15;102311.75;5032131;28;20095;-85
2021/07/20 09:05:08;;;;;;;8.60;6.95;;;;;;;23.22;40.71;102317.91;5033311;28;20029;-86
2021/07/20 09:07:46;;;;;;;12.20;7.43;;;;;;;23.23;40.80;102311.75;5031878;28;20057;-86
2021/07/20 09:10:12;;;;;;;11.02;7.28;;;;;;;23.21;40.79;102314.38;5031884;28;20107;-85
2021/07/20 09:12:41;;;;;;;10.82;7.38;;;;;;;23.22;40.58;102324.03;5015668;28;20029;-86
2021/07/20 09:15:12;;;;;;;9.77;7.20;;;;;;;23.24;40.61;102324.88;5017723;28;20056;-86
2021/07/20 09:18:15;;;;;;;8.88;7.07;;;;;;;23.22;40.46;102321.41;5033016;28;20034;-86
2021/07/20 09:20:44;;;;;;;9.63;6.70;;;;;;;23.22;40.67;102320.53;5035932;28;20029;-86
2021/07/20 09:23:16;;;;;;;12.30;7.03;;;;;;;23.18;40.42;102322.31;5032866;28;20026;-86
2021/07/20 09:25:48;;;;;;;8.95;6.90;;;;;;;23.17;40.06;102321.44;5032041;28;20476;-86
2021/07/20 09:28:26;;;;;;;10.45;7.45;;;;;;;23.17;40.08;102315.34;5032176;28;20645;-86
2021/07/20 09:30:53;;;;;;;10.57;7.22;;;;;;;23.19;40.58;102316.16;5047936;28;20049;-86
2021/07/20 09:33:32;;;;;;;8.43;6.70;;;;;;;23.22;40.74;102325.78;5051586;28;20048;-84
2021/07/20 09:36:10;;;;;;;11.90;7.22;;;;;;;23.23;40.43;102327.50;5051663;28;20087;-86
2021/07/20 09:38:58;;;;;;;9.55;7.07;;;;;;;23.24;40.37;102326.66;5051718;28;20070;-85
2021/07/20 09:41:46;;;;;;;9.50;6.97;;;;;;;23.23;40.14;102320.50;5051757;28;20418;-86
2021/07/20 09:44:42;;;;;;;10.32;6.97;;;;;;;23.23;40.45;102320.50;5051691;28;20106;-85
2021/07/20 09:47:13;;;;;;;8.90;6.95;;;;;;;23.26;40.53;102328.38;5051506;28;20033;-85
2021/07/20 09:50:04;;;;;;;8.27;6.68;;;;;;;23.28;40.47;102318.72;5051532;28;20383;-85
2021/07/20 09:52:42;;;;;;;9.88;7.47;;;;;;;23.27;40.40;102319.59;5051431;28;20025;-86
2021/07/20 09:55:25;;;;;;;10.05;7.05;;;;;;;23.25;40.51;102317.88;5051811;28;20032;-85
2021/07/20 09:57:55;;;;;;;10.43;7.15;;;;;;;23.28;40.26;102323.97;5055222;28;20029;-91
2021/07/20 10:00:25;;;;;;;8.95;6.75;;;;;;;23.30;40.42;102322.19;5056396;28;20056;-89
2021/07/20 10:03:04;;;;;;;9.57;7.18;;;;;;;23.28;40.52;102323.97;5057201;28;20029;-87
2021/07/20 10:05:42;;;;;;;9.20;6.82;;;;;;;23.28;40.00;102325.69;5054970;28;20053;-90
2021/07/20 10:08:23;;;;;;;8.95;7.00;;;;;;;23.27;40.16;102326.59;5054959;28;20059;-83
2021/07/20 10:11:02;;;;;;;8.35;6.90;;;;;;;23.27;40.54;102322.22;5054977;28;20032;-82
2021/07/20 10:13:37;;;;;;;9.80;7.40;;;;;;;23.24;40.16;102324.88;5055463;28;20017;-80
2021/07/20 10:16:14;;;;;;;10.20;7.43;;;;;;;23.26;40.41;102322.25;5055537;28;20020;-82
2021/07/20 10:19:06;;;;;;;12.45;7.97;;;;;;;23.26;40.14;102323.13;5056146;28;20021;-84
2021/07/20 10:21:35;;;;;;;8.98;7.40;;;;;;;23.23;40.25;102317.88;5055967;28;20071;-84
2021/07/20 10:24:20;;;;;;;8.73;7.25;;;;;;;23.23;40.41;102317.88;5054613;28;20471;-84
2021/07/20 10:26:53;;;;;;;9.77;7.20;;;;;;;23.25;40.14;102318.72;5054611;28;20529;-85
2021/07/20 10:29:48;;;;;;;10.82;7.25;;;;;;;23.23;40.17;102311.75;5054397;28;20052;-81
2021/07/20 10:32:44;;;;;;;9.25;6.78;;;;;;;23.25;40.20;102315.25;5049749;28;20043;-85
2021/07/20 10:35:26;;;;;;;11.80;7.20;;;;;;;23.25;40.36;102310.00;5054305;28;20396;-84
2021/07/20 10:37:57;;;;;;;9.60;6.75;;;;;;;23.27;40.00;102306.44;5055477;28;20054;-84
2021/07/20 10:40:25;;;;;;;11.48;7.43;;;;;;;23.27;40.26;102302.97;5054392;28;20029;-84
2021/07/20 10:42:56;;;;;;;8.23;6.90;;;;;;;23.30;40.16;102300.28;5054663;28;20491;-84
2021/07/20 10:45:23;;;;;;;12.43;7.07;;;;;;;23.30;40.24;102298.56;5054121;28;20092;-84
2021/07/20 10:47:57;;;;;;;9.13;6.63;;;;;;;23.32;40.13;102303.78;5054096;28;20025;-84
2021/07/20 10:50:29;;;;;;;11.20;6.88;;;;;;;23.32;40.25;102303.78;5054066;28;20025;-85
2021/07/20 10:53:07;;;;;;;10.90;7.45;;;;;;;23.33;40.09;102301.16;5055253;28;20025;-83
2021/07/20 10:56:20;;;;;;;10.43;7.32;;;;;;;23.30;40.20;102295.03;5053977;28;20059;-83
2021/07/20 10:58:58;;;;;;;10.88;7.13;;;;;;;23.25;40.03;102294.22;5035749;28;20033;-82
2021/07/20 11:01:35;;;;;;;8.63;6.82;;;;;;;23.27;40.20;102303.81;5054177;28;20028;-82
2021/07/20 11:04:28;;;;;;;9.63;7.03;;;;;;;23.28;40.10;102300.34;5054281;28;20355;-81
2021/07/20 11:06:54;;;;;;;9.82;7.10;;;;;;;23.25;40.13;102297.72;5055051;28;20087;-81
2021/07/20 11:09:22;;;;;;;10.45;6.93;;;;;;;23.25;40.09;102295.09;5037680;28;20037;-82
2021/07/20 11:11:56;;;;;;;8.32;6.72;;;;;;;23.28;40.12;102294.19;5055188;28;20021;-81
2021/07/20 11:14:28;;;;;;;11.00;7.57;;;;;;;23.30;39.76;102285.44;5058774;28;20021;-81
2021/07/20 11:16:57;;;;;;;9.25;6.70;;;;;;;23.29;39.95;102294.19;5061194;28;20435;-81
2021/07/20 11:19:25;;;;;;;9.18;6.95;;;;;;;23.27;40.18;102295.94;5060174;28;20036;-80
2021/07/20 11:21:51;;;;;;;9.65;7.25;;;;;;;23.28;39.83;102292.44;5058665;28;20025;-82
2021/07/20 11:24:18;;;;;;;9.95;7.10;;;;;;;23.31;40.27;102286.28;5038936;28;20410;-82
2021/07/20 11:26:44;;;;;;;9.55;7.15;;;;;;;23.32;39.98;102285.38;5054688;28;20471;-82
2021/07/20 11:29:11;;;;;;;10.15;7.65;;;;;;;23.33;39.76;102285.38;5038906;28;20060;-81
2021/07/20 11:31:42;;;;;;;9.65;6.68;;;;;;;23.35;39.87;102277.50;5055271;28;20024;-81
2021/07/20 11:34:13;;;;;;;11.32;7.40;;;;;;;23.35;39.88;102280.13;5054083;28;20033;-80